createdAt,value
2018-08-23T00:02:24.035Z,95.10
2018-08-23T00:07:27.255Z,95.70
2018-08-23T00:12:41.931Z,96.10
2018-08-23T00:17:46.534Z,95.50
2018-08-23T00:22:50.630Z,96.10
2018-08-23T00:27:53.859Z,95.40
2018-08-23T00:32:58.904Z,95.80
2018-08-23T00:38:03.071Z,96.70
2018-08-23T00:43:08.459Z,97.10
2018-08-23T00:48:11.687Z,97.10
2018-08-23T00:53:15.618Z,97.50
2018-08-23T00:58:18.826Z,97.50
2018-08-23T01:03:22.075Z,97.50
2018-08-23T01:08:30.679Z,97.50
2018-08-23T01:13:34.106Z,97.50
2018-08-23T01:18:37.331Z,97.50
2018-08-23T01:23:42.199Z,97.50
2018-08-23T01:28:45.434Z,97.50
2018-08-23T01:33:48.663Z,97.50
2018-08-23T01:38:51.869Z,97.50
2018-08-23T01:43:55.111Z,97.50
2018-08-23T01:48:58.674Z,97.50
2018-08-23T01:54:01.924Z,97.50
2018-08-23T01:59:05.128Z,97.50
2018-08-23T02:04:08.315Z,97.50
2018-08-23T02:09:11.531Z,97.50
2018-08-23T02:14:14.728Z,97.50
2018-08-23T02:19:17.917Z,97.50
2018-08-23T02:24:25.530Z,97.50
2018-08-23T02:29:41.913Z,97.50
2018-08-23T02:34:46.362Z,97.50
2018-08-23T02:39:49.564Z,97.50
2018-08-23T02:44:53.024Z,97.50
2018-08-23T02:49:56.228Z,97.50
2018-08-23T02:54:59.424Z,97.50
2018-08-23T03:00:02.637Z,97.50
2018-08-23T03:05:05.813Z,97.50
2018-08-23T03:10:09.006Z,97.50
2018-08-23T03:15:12.186Z,97.50
2018-08-23T03:20:16.538Z,97.50
2018-08-23T03:25:21.797Z,97.50
2018-08-23T03:30:25.250Z,97.50
2018-08-23T03:35:28.447Z,97.50
2018-08-23T03:40:31.645Z,97.50
2018-08-23T03:45:34.874Z,97.50
2018-08-23T03:50:43.684Z,97.50
2018-08-23T03:56:10.512Z,97.50
2018-08-23T04:02:15.290Z,97.50
2018-08-23T04:07:18.574Z,97.50
2018-08-23T04:12:21.756Z,97.50
2018-08-23T04:17:24.934Z,97.50
2018-08-23T04:22:28.109Z,97.50
2018-08-23T04:27:31.287Z,97.50
2018-08-23T04:32:42.088Z,97.50
2018-08-23T04:37:45.242Z,97.50
2018-08-23T04:42:48.425Z,97.50
2018-08-23T04:47:57.106Z,97.50
2018-08-23T04:53:00.386Z,97.50
2018-08-23T04:58:04.327Z,97.50
2018-08-23T05:03:07.629Z,97.50
2018-08-23T05:08:10.837Z,97.50
2018-08-23T05:13:14.070Z,97.50
2018-08-23T05:18:17.294Z,96.70
2018-08-23T05:23:20.631Z,94.50
2018-08-23T05:28:23.771Z,90.40
2018-08-23T05:33:26.995Z,88.80
2018-08-23T05:38:30.205Z,84.50
2018-08-23T05:43:33.435Z,82.70
2018-08-23T05:48:36.646Z,81.40
2018-08-23T05:53:40.798Z,80.40
2018-08-23T05:58:43.999Z,76.90
2018-08-23T06:03:47.227Z,74.90
2018-08-23T06:08:54.702Z,73.90
2018-08-23T06:13:57.917Z,72.60
2018-08-23T06:19:01.148Z,72.40
2018-08-23T06:24:07.462Z,71.00
2018-08-23T06:29:13.434Z,69.80
2018-08-23T06:34:16.660Z,67.10
2018-08-23T06:39:19.843Z,65.70
2018-08-23T06:44:23.431Z,66.20
2018-08-23T06:49:26.653Z,64.50
2018-08-23T06:54:29.887Z,63.70
2018-08-23T06:59:33.143Z,63.00
2018-08-23T07:04:36.376Z,62.90
2018-08-23T07:09:41.480Z,63.70
2018-08-23T07:14:45.902Z,63.50
2018-08-23T07:19:49.558Z,60.60
2018-08-23T07:24:54.230Z,57.50
2018-08-23T07:29:58.586Z,57.00
2018-08-23T07:35:07.498Z,56.30
2018-08-23T07:40:18.264Z,57.50
2018-08-23T07:45:21.477Z,56.70
2018-08-23T07:50:24.695Z,54.80
2018-08-23T07:55:27.900Z,55.30
2018-08-23T08:00:36.543Z,53.60
2018-08-23T08:05:42.341Z,52.20
2018-08-23T08:10:46.128Z,52.00
2018-08-23T08:15:49.343Z,50.30
2018-08-23T08:21:01.427Z,51.00
2018-08-23T08:26:04.711Z,51.90
2018-08-23T08:31:07.971Z,54.50
2018-08-23T08:36:11.492Z,57.50
2018-08-23T08:41:14.727Z,57.50
2018-08-23T08:46:17.941Z,58.30
2018-08-23T08:51:23.690Z,60.00
2018-08-23T08:56:33.958Z,60.50
2018-08-23T09:01:37.166Z,58.70
2018-08-23T09:06:44.421Z,60.50
2018-08-23T09:11:47.599Z,61.60
2018-08-23T09:16:50.787Z,63.70
2018-08-23T09:22:03.693Z,63.00
2018-08-23T09:27:16.555Z,63.40
2018-08-23T09:32:29.403Z,60.30
2018-08-23T09:37:36.223Z,58.10
2018-08-23T09:42:39.487Z,59.80
2018-08-23T09:47:42.728Z,61.90
2018-08-23T09:52:47.994Z,63.00
2018-08-23T09:57:51.233Z,63.00
2018-08-23T10:02:59.775Z,61.10
2018-08-23T10:08:08.542Z,61.30
2018-08-23T10:13:17.242Z,61.40
2018-08-23T10:18:26.922Z,62.50
2018-08-23T10:23:30.143Z,63.10
2018-08-23T10:28:39.144Z,64.40
2018-08-23T10:33:42.318Z,64.60
2018-08-23T10:38:45.555Z,65.20
2018-08-23T10:43:49.163Z,64.10
2018-08-23T10:48:52.335Z,63.70
2018-08-23T10:53:55.545Z,63.40
2018-08-23T10:58:58.818Z,62.90
2018-08-23T11:04:06.683Z,62.60
2018-08-23T11:09:15.270Z,61.60
2018-08-23T11:14:23.935Z,60.50
2018-08-23T11:19:32.648Z,61.90
2018-08-23T11:24:36.059Z,62.60
2018-08-23T11:29:39.475Z,62.60
2018-08-23T11:34:42.574Z,63.80
2018-08-23T11:39:45.824Z,64.30
2018-08-23T11:44:49.052Z,64.70
2018-08-23T11:49:52.385Z,63.00
2018-08-23T11:54:55.691Z,63.00
2018-08-23T11:59:58.933Z,62.30
2018-08-23T12:05:02.196Z,61.90
2018-08-23T12:10:06.014Z,61.20
2018-08-23T12:15:09.367Z,61.40
2018-08-23T12:20:12.620Z,60.90
2018-08-23T12:25:16.668Z,60.50
2018-08-23T12:30:20.206Z,61.20
2018-08-23T12:35:23.578Z,62.20
2018-08-23T12:40:33.028Z,62.70
2018-08-23T12:45:41.628Z,62.00
2018-08-23T12:50:45.059Z,61.90
2018-08-23T12:55:48.257Z,63.00
2018-08-23T13:00:51.468Z,61.20
2018-08-23T13:05:54.655Z,61.30
2018-08-23T13:10:57.854Z,60.70
2018-08-23T13:16:01.005Z,60.60
2018-08-23T13:21:04.220Z,60.60
2018-08-23T13:26:07.436Z,61.20
2018-08-23T13:31:10.818Z,60.20
2018-08-23T13:36:14.188Z,60.00
2018-08-23T13:41:17.294Z,60.20
2018-08-23T13:46:20.828Z,61.10
2018-08-23T13:51:24.149Z,60.00
2018-08-23T13:56:27.389Z,59.50
2018-08-23T14:01:30.615Z,58.90
2018-08-23T14:06:33.955Z,59.50
2018-08-23T14:11:37.178Z,59.40
2018-08-23T14:16:40.456Z,59.20
2018-08-23T14:21:43.973Z,58.60
2018-08-23T14:26:47.234Z,57.80
2018-08-23T14:31:50.488Z,57.40
2018-08-23T14:36:53.705Z,57.90
2018-08-23T15:42:59.781Z,61.40
2018-08-23T15:48:03.069Z,61.20
2018-08-23T15:53:06.293Z,61.30
2018-08-23T15:58:09.527Z,60.90
2018-08-23T16:03:12.758Z,61.20
2018-08-23T16:08:16.040Z,61.20
2018-08-23T16:13:19.239Z,61.10
2018-08-23T16:18:27.982Z,61.00
2018-08-23T16:23:31.231Z,61.30
2018-08-23T16:28:34.510Z,61.80
2018-08-23T16:33:38.238Z,62.20
2018-08-23T16:38:41.459Z,62.50
2018-08-23T16:43:44.690Z,63.30
2018-08-23T16:48:47.908Z,64.30
2018-08-23T16:53:51.127Z,64.60
2018-08-23T16:58:54.639Z,65.70
2018-08-23T17:03:58.320Z,65.90
2018-08-23T17:09:01.556Z,66.40
2018-08-23T17:14:04.756Z,66.30
2018-08-23T17:19:07.999Z,66.90
2018-08-23T17:24:11.208Z,67.50
2018-08-23T17:29:14.479Z,68.00
2018-08-23T17:34:17.679Z,68.30
2018-08-23T17:39:20.886Z,68.90
2018-08-23T17:44:24.140Z,68.60
2018-08-23T17:49:27.415Z,69.40
2018-08-23T17:54:30.563Z,69.20
2018-08-23T17:59:34.707Z,69.10
2018-08-23T18:04:37.902Z,69.10
2018-08-23T18:09:41.066Z,70.00
2018-08-23T18:14:44.259Z,70.70
2018-08-23T18:19:47.440Z,70.50
2018-08-23T18:24:50.703Z,70.90
2018-08-23T18:29:53.916Z,71.20
2018-08-23T18:34:57.171Z,71.60
2018-08-23T18:40:00.272Z,73.40
2018-08-23T18:45:03.439Z,74.80
2018-08-23T18:50:06.639Z,75.20
2018-08-23T18:55:09.839Z,76.10
2018-08-23T19:00:13.080Z,77.50
2018-08-23T19:05:16.205Z,77.70
2018-08-23T19:10:19.364Z,77.40
2018-08-23T19:15:27.942Z,78.40
2018-08-23T19:20:31.144Z,77.90
2018-08-23T19:25:34.378Z,78.40
2018-08-23T19:30:37.552Z,78.40
2018-08-23T19:35:40.722Z,79.40
2018-08-23T19:40:43.904Z,80.00
2018-08-23T19:45:52.670Z,80.60
2018-08-23T19:50:55.855Z,80.30
2018-08-23T19:55:59.019Z,80.40
2018-08-23T20:01:02.235Z,80.00
2018-08-23T20:06:05.458Z,79.30
2018-08-23T20:11:08.680Z,79.20
2018-08-23T20:16:11.959Z,79.30
2018-08-23T20:21:15.814Z,78.60
2018-08-23T20:26:19.036Z,77.90
2018-08-23T20:31:22.243Z,77.40
2018-08-23T20:36:25.517Z,76.80
2018-08-23T20:41:28.699Z,76.60
2018-08-23T20:46:31.963Z,76.40
2018-08-23T20:51:35.955Z,76.50
2018-08-23T20:56:39.184Z,76.60
2018-08-23T21:01:42.386Z,77.00
2018-08-23T21:06:45.591Z,76.80
2018-08-23T21:11:48.815Z,76.80
2018-08-23T21:16:52.038Z,76.50
2018-08-23T21:21:55.361Z,76.40
2018-08-23T21:26:58.599Z,76.10
2018-08-23T21:32:01.928Z,76.00
2018-08-23T21:37:05.258Z,76.30
2018-08-23T21:42:09.432Z,76.50
2018-08-23T21:47:12.639Z,76.80
2018-08-23T21:52:15.858Z,77.20
2018-08-23T21:57:19.081Z,77.20
2018-08-23T22:02:23.273Z,77.70
2018-08-23T22:07:26.474Z,78.10
2018-08-23T22:12:29.700Z,78.80
2018-08-23T22:17:32.936Z,79.60
2018-08-23T22:22:36.204Z,80.90
2018-08-23T22:27:39.411Z,82.00
2018-08-23T22:32:42.633Z,87.90
2018-08-23T22:37:45.886Z,93.60
2018-08-23T22:42:49.128Z,95.90
2018-08-23T22:47:52.351Z,97.50
2018-08-23T22:52:55.650Z,97.50
2018-08-23T22:57:58.846Z,97.50
2018-08-23T23:03:02.281Z,97.50
2018-08-23T23:08:07.628Z,97.50
2018-08-23T23:13:10.843Z,97.50
2018-08-23T23:18:13.981Z,97.50
2018-08-23T23:23:17.183Z,97.50
2018-08-23T23:28:20.350Z,97.50
2018-08-23T23:33:23.627Z,97.50
2018-08-23T23:38:26.848Z,97.50
2018-08-23T23:43:30.064Z,97.50
2018-08-23T23:48:34.575Z,97.50
2018-08-23T23:53:38.180Z,97.50
2018-08-23T23:58:41.446Z,97.50
